createdAt,value
2023-04-16T11:22:50.748Z,19.40
2023-04-16T11:27:57.121Z,19.50
2023-04-16T11:33:02.439Z,19.27
2023-04-16T11:38:10.379Z,18.50
2023-04-16T11:43:17.891Z,19.57
2023-04-16T11:48:23.117Z,20.03
2023-04-16T11:53:30.929Z,18.30
2023-04-16T11:58:36.384Z,19.63
2023-04-16T12:03:49.976Z,17.73
2023-04-16T12:08:58.000Z,19.20
2023-04-16T12:14:13.316Z,20.47
2023-04-16T12:19:18.482Z,19.27
2023-04-16T12:24:27.683Z,18.17
2023-04-16T12:29:33.062Z,19.63
2023-04-16T12:34:53.304Z,18.87
2023-04-16T12:40:01.202Z,17.87
2023-04-16T12:45:07.298Z,16.30
2023-04-16T12:50:13.841Z,16.33
2023-04-16T12:55:22.067Z,15.33
2023-04-16T13:00:27.580Z,14.80
2023-04-16T13:05:32.829Z,13.30
2023-04-16T13:10:41.231Z,12.82
2023-04-16T13:15:46.465Z,12.90
2023-04-16T13:20:52.146Z,12.17
2023-04-16T13:25:59.983Z,11.17
2023-04-16T13:31:05.955Z,12.33
2023-04-16T13:36:11.334Z,11.67
2023-04-16T13:41:19.101Z,11.53
2023-04-16T13:46:24.361Z,11.33
2023-04-16T13:51:30.018Z,11.10
2023-04-16T13:56:37.851Z,10.70
2023-04-16T14:01:43.127Z,10.40
2023-04-16T14:06:48.432Z,10.33
2023-04-16T14:11:56.197Z,10.33
2023-04-16T14:17:03.450Z,10.77
2023-04-16T14:22:09.538Z,10.37
2023-04-16T14:27:17.774Z,10.40
2023-04-16T14:32:23.070Z,10.80
2023-04-16T14:37:29.134Z,11.30
2023-04-16T14:42:37.051Z,10.50
2023-04-16T14:47:46.149Z,10.63
2023-04-16T14:52:51.347Z,10.47
2023-04-16T14:57:59.927Z,10.70
2023-04-16T15:03:05.229Z,10.30
2023-04-16T15:08:10.498Z,9.87
2023-04-16T15:13:18.479Z,9.93
2023-04-16T15:18:23.667Z,10.10
2023-04-16T15:23:28.932Z,10.43
2023-04-16T15:28:36.919Z,10.90
2023-04-16T15:33:42.121Z,10.23
2023-04-16T15:38:47.865Z,10.40
2023-04-16T15:43:56.035Z,9.50
2023-04-16T15:49:01.405Z,10.07
2023-04-16T15:54:07.595Z,9.90
2023-04-16T15:59:15.493Z,10.10
2023-04-16T16:04:23.288Z,9.87
2023-04-16T16:09:28.841Z,10.13
2023-04-16T16:14:36.762Z,9.93
2023-04-16T16:19:41.915Z,9.60
2023-04-16T16:24:49.012Z,9.97
2023-04-16T16:29:57.135Z,10.30
2023-04-16T16:35:02.652Z,10.37
2023-04-16T16:40:09.592Z,9.37
2023-04-16T16:45:17.473Z,9.97
2023-04-16T16:50:23.002Z,10.13
2023-04-16T16:55:28.574Z,9.97
2023-04-16T17:00:36.421Z,10.37
2023-04-16T17:05:41.642Z,10.20
2023-04-16T17:10:47.183Z,10.67
2023-04-16T17:15:55.091Z,10.47
2023-04-16T17:21:00.255Z,13.97
2023-04-16T17:26:05.651Z,13.80
2023-04-16T17:31:13.471Z,15.90
2023-04-16T17:36:19.710Z,15.80
2023-04-16T17:41:24.840Z,16.43
2023-04-16T17:46:32.632Z,14.87
2023-04-16T17:51:38.253Z,15.77
2023-04-16T17:56:43.754Z,14.70
2023-04-16T18:01:52.334Z,14.60
2023-04-16T18:06:57.669Z,14.43
2023-04-16T18:12:03.428Z,14.87
2023-04-16T18:17:11.589Z,15.47
2023-04-16T18:22:16.853Z,15.87
2023-04-16T18:27:22.457Z,16.17
2023-04-16T18:32:31.435Z,15.70
2023-04-16T18:37:36.857Z,15.87
2023-04-16T18:42:42.171Z,15.77
2023-04-16T18:47:50.390Z,15.70
2023-04-16T18:52:56.055Z,16.67
2023-04-16T18:58:01.255Z,17.27
2023-04-16T19:03:09.772Z,17.10
2023-04-16T19:08:15.590Z,18.10
2023-04-16T19:13:21.057Z,18.30
2023-04-16T19:18:28.903Z,18.37
2023-04-16T19:23:34.194Z,18.10
2023-04-16T19:28:39.839Z,19.23
2023-04-16T19:33:47.770Z,18.73
2023-04-16T19:38:53.178Z,17.70
2023-04-16T19:43:58.382Z,17.67
2023-04-16T19:49:06.330Z,16.73
2023-04-16T19:54:11.563Z,17.27
2023-04-16T19:59:16.946Z,17.43
2023-04-16T20:04:24.760Z,17.37
2023-04-16T20:09:30.241Z,17.07
2023-04-16T20:14:35.654Z,16.47
2023-04-16T20:19:47.539Z,17.70
2023-04-16T20:24:55.159Z,17.47
2023-04-16T20:30:00.520Z,17.30
2023-04-16T20:35:11.664Z,16.97
2023-04-16T20:40:17.215Z,16.63
2023-04-16T20:45:22.810Z,17.30
2023-04-16T20:50:30.705Z,17.57
2023-04-16T20:55:36.073Z,16.93
2023-04-16T21:00:41.352Z,16.97
2023-04-16T21:05:53.308Z,16.60
2023-04-16T21:10:58.574Z,16.70
2023-04-16T21:16:05.100Z,16.70
2023-04-16T21:21:13.104Z,17.17
2023-04-16T21:26:18.551Z,16.53
2023-04-16T21:31:23.789Z,16.47
2023-04-16T21:36:32.188Z,16.47
2023-04-16T21:41:37.425Z,17.33
2023-04-16T21:46:42.681Z,17.17
2023-04-16T21:51:59.189Z,16.87
2023-04-16T21:57:04.489Z,16.63
2023-04-16T22:02:09.780Z,16.77
2023-04-16T22:07:20.833Z,16.83
2023-04-16T22:12:26.361Z,18.13
2023-04-16T22:17:31.596Z,17.60
2023-04-16T22:22:39.632Z,18.70
2023-04-16T22:27:44.881Z,17.67
